createdAt,value
2018-08-13T00:00:11.321Z,1006.64
2018-08-13T00:01:11.307Z,1006.66
2018-08-13T00:02:11.286Z,1006.65
2018-08-13T00:03:11.269Z,1006.63
2018-08-13T00:04:11.254Z,1006.63
2018-08-13T00:05:11.234Z,1006.66
2018-08-13T00:06:11.218Z,1006.67
2018-08-13T00:07:11.202Z,1006.63
2018-08-13T00:08:11.184Z,1006.63
2018-08-13T00:09:11.169Z,1006.63
2018-08-13T00:10:11.154Z,1006.63
2018-08-13T00:11:11.137Z,1006.61
2018-08-13T00:12:11.119Z,1006.59
2018-08-13T00:13:11.099Z,1006.56
2018-08-13T00:14:11.079Z,1006.56
2018-08-13T00:15:11.071Z,1006.52
2018-08-13T00:16:11.048Z,1006.53
2018-08-13T00:17:11.031Z,1006.53
2018-08-13T00:18:11.018Z,1006.49
2018-08-13T00:19:11.002Z,1006.51
2018-08-13T00:20:10.981Z,1006.53
2018-08-13T00:21:10.961Z,1006.50
2018-08-13T00:22:10.948Z,1006.47
2018-08-13T00:23:10.929Z,1006.47
2018-08-13T00:24:10.913Z,1006.47
2018-08-13T00:25:10.895Z,1006.43
2018-08-13T00:26:10.878Z,1006.44
2018-08-13T00:27:10.864Z,1006.44
2018-08-13T00:28:10.855Z,1006.44
2018-08-13T00:29:10.830Z,1006.46
2018-08-13T00:30:10.810Z,1006.47
2018-08-13T00:31:10.794Z,1006.50
2018-08-13T00:32:10.776Z,1006.45
2018-08-13T00:33:10.758Z,1006.45
2018-08-13T00:34:10.741Z,1006.46
2018-08-13T00:35:10.728Z,1006.41
2018-08-13T00:36:10.707Z,1006.44
2018-08-13T00:37:10.688Z,1006.38
2018-08-13T00:38:10.670Z,1006.43
2018-08-13T00:39:10.661Z,1006.39
2018-08-13T00:40:10.650Z,1006.36
2018-08-13T00:41:10.624Z,1006.39
2018-08-13T00:42:10.609Z,1006.39
2018-08-13T00:43:10.587Z,1006.41
2018-08-13T00:44:10.568Z,1006.41
2018-08-13T00:45:10.555Z,1006.43
2018-08-13T00:46:10.539Z,1006.41
2018-08-13T00:47:10.521Z,1006.36
2018-08-13T00:48:10.505Z,1006.37
2018-08-13T00:49:10.486Z,1006.37
2018-08-13T00:50:10.462Z,1006.32
2018-08-13T00:51:10.447Z,1006.31
2018-08-13T00:52:10.441Z,1006.32
2018-08-13T00:53:10.410Z,1006.33
2018-08-13T00:54:10.396Z,1006.33
2018-08-13T00:55:10.379Z,1006.31
2018-08-13T00:56:10.361Z,1006.34
2018-08-13T00:57:10.341Z,1006.28
2018-08-13T00:58:10.328Z,1006.30
2018-08-13T00:59:10.310Z,1006.28
2018-08-13T01:00:10.295Z,1006.28
2018-08-13T01:01:10.277Z,1006.26
2018-08-13T01:02:10.263Z,1006.24
2018-08-13T01:03:10.237Z,1006.22
2018-08-13T01:04:10.220Z,1006.21
2018-08-13T01:05:10.201Z,1006.25
2018-08-13T01:06:10.204Z,1006.23
2018-08-13T01:07:10.173Z,1006.19
2018-08-13T01:08:10.154Z,1006.20
2018-08-13T01:09:10.136Z,1006.20
2018-08-13T01:10:10.114Z,1006.20
2018-08-13T01:11:10.103Z,1006.21
2018-08-13T01:12:10.084Z,1006.20
2018-08-13T01:13:10.066Z,1006.15
2018-08-13T01:14:10.048Z,1006.13
2018-08-13T01:15:10.031Z,1006.17
2018-08-13T01:16:10.013Z,1006.13
2018-08-13T01:17:09.995Z,1006.11
2018-08-13T01:18:09.974Z,1006.10
2018-08-13T01:19:09.963Z,1006.09
2018-08-13T01:20:09.949Z,1006.07
2018-08-13T01:21:09.926Z,1006.04
2018-08-13T01:22:09.904Z,1006.07
2018-08-13T01:23:09.887Z,1006.06
2018-08-13T01:24:09.871Z,1006.08
2018-08-13T01:25:09.851Z,1006.07
2018-08-13T01:26:09.837Z,1006.06
2018-08-13T01:27:09.817Z,1006.07
2018-08-13T01:28:09.799Z,1006.06
2018-08-13T01:29:09.785Z,1006.04
2018-08-13T01:30:09.763Z,1006.05
2018-08-13T01:31:09.751Z,1006.03
2018-08-13T01:32:09.733Z,1006.01
2018-08-13T01:33:09.716Z,1006.05
2018-08-13T01:34:09.697Z,1006.05
2018-08-13T01:35:09.674Z,1006.00
2018-08-13T01:36:09.662Z,1006.02
2018-08-13T01:37:09.650Z,1005.97
2018-08-13T01:38:09.635Z,1005.93
2018-08-13T01:39:09.610Z,1005.96
2018-08-13T01:40:09.589Z,1005.94
2018-08-13T01:41:09.570Z,1005.93
2018-08-13T01:42:09.551Z,1005.93
2018-08-13T01:43:09.538Z,1005.91
2018-08-13T01:44:09.521Z,1005.92
2018-08-13T01:45:09.499Z,1005.88
2018-08-13T01:46:09.481Z,1005.93
2018-08-13T01:47:09.466Z,1005.90
2018-08-13T01:48:09.446Z,1005.91
2018-08-13T01:49:09.433Z,1005.89
2018-08-13T01:50:09.412Z,1005.90
2018-08-13T01:51:09.397Z,1005.87
2018-08-13T01:52:09.377Z,1005.88
2018-08-13T01:53:09.357Z,1005.87
2018-08-13T01:54:09.340Z,1005.81
2018-08-13T01:55:09.323Z,1005.78
2018-08-13T01:56:09.306Z,1005.78
2018-08-13T01:57:09.284Z,1005.78
2018-08-13T01:58:09.269Z,1005.76
2018-08-13T01:59:09.254Z,1005.75
2018-08-13T02:00:09.232Z,1005.72
2018-08-13T02:01:09.217Z,1005.75
2018-08-13T02:02:09.198Z,1005.68
2018-08-13T02:03:09.184Z,1005.68
2018-08-13T02:04:09.162Z,1005.64
2018-08-13T02:05:09.146Z,1005.65
2018-08-13T02:06:09.126Z,1005.63
2018-08-13T02:07:09.108Z,1005.63
2018-08-13T02:08:09.088Z,1005.65
2018-08-13T02:09:09.072Z,1005.64
2018-08-13T02:10:09.053Z,1005.62
2018-08-13T02:11:09.035Z,1005.58
2018-08-13T02:12:09.022Z,1005.60
2018-08-13T02:13:08.998Z,1005.57
2018-08-13T02:14:08.982Z,1005.56
2018-08-13T02:15:08.967Z,1005.57
2018-08-13T02:16:08.946Z,1005.55
2018-08-13T02:17:08.926Z,1005.56
2018-08-13T02:18:08.913Z,1005.57
2018-08-13T02:19:08.896Z,1005.52
2018-08-13T02:20:08.877Z,1005.50
2018-08-13T02:21:08.854Z,1005.52
2018-08-13T02:22:08.840Z,1005.50
2018-08-13T02:23:08.824Z,1005.51
2018-08-13T02:24:08.806Z,1005.50
2018-08-13T02:25:08.783Z,1005.44
2018-08-13T02:26:08.776Z,1005.48
2018-08-13T02:27:08.750Z,1005.49
2018-08-13T02:28:08.732Z,1005.48
2018-08-13T02:29:08.714Z,1005.51
2018-08-13T02:30:08.693Z,1005.48
2018-08-13T02:31:08.681Z,1005.53
2018-08-13T02:32:08.661Z,1005.52
2018-08-13T02:33:08.642Z,1005.51
2018-08-13T02:34:08.633Z,1005.48
2018-08-13T02:35:08.603Z,1005.48
2018-08-13T02:36:08.585Z,1005.46
2018-08-13T02:37:08.571Z,1005.49
2018-08-13T02:38:08.551Z,1005.46
2018-08-13T02:39:08.564Z,1005.43
2018-08-13T02:40:08.513Z,1005.46
2018-08-13T02:41:08.492Z,1005.46
2018-08-13T02:42:08.475Z,1005.43
2018-08-13T02:43:08.460Z,1005.44
2018-08-13T02:44:08.439Z,1005.43
2018-08-13T02:45:08.424Z,1005.40
2018-08-13T02:46:08.402Z,1005.38
2018-08-13T02:47:08.382Z,1005.40
2018-08-13T02:48:08.365Z,1005.42
2018-08-13T02:49:08.351Z,1005.39
2018-08-13T02:50:08.332Z,1005.41
2018-08-13T02:51:08.309Z,1005.43
2018-08-13T02:52:08.296Z,1005.44
2018-08-13T02:53:08.272Z,1005.46
2018-08-13T02:54:08.258Z,1005.44
2018-08-13T02:55:08.244Z,1005.42
2018-08-13T02:56:08.224Z,1005.43
2018-08-13T02:57:08.204Z,1005.42
2018-08-13T02:58:08.256Z,1005.39
2018-08-13T02:59:08.168Z,1005.41
2018-08-13T03:00:08.152Z,1005.37
2018-08-13T03:01:08.133Z,1005.37
2018-08-13T03:02:08.118Z,1005.36
2018-08-13T03:03:08.095Z,1005.36
2018-08-13T03:04:08.080Z,1005.36
2018-08-13T03:05:08.064Z,1005.35
2018-08-13T03:06:08.038Z,1005.34
2018-08-13T03:07:08.017Z,1005.31
2018-08-13T03:08:07.999Z,1005.35
2018-08-13T03:09:07.981Z,1005.32
2018-08-13T03:10:07.959Z,1005.32
2018-08-13T03:11:07.945Z,1005.32
2018-08-13T03:12:07.924Z,1005.32
2018-08-13T03:13:07.907Z,1005.31
2018-08-13T03:14:07.891Z,1005.31
2018-08-13T03:15:07.871Z,1005.30
2018-08-13T03:16:07.851Z,1005.28
2018-08-13T03:17:07.831Z,1005.27
2018-08-13T03:18:07.817Z,1005.23
2018-08-13T03:19:07.800Z,1005.24
2018-08-13T03:20:07.779Z,1005.25
2018-08-13T03:21:07.769Z,1005.26
2018-08-13T03:22:07.743Z,1005.23
2018-08-13T03:23:07.727Z,1005.21
2018-08-13T03:24:07.701Z,1005.23
2018-08-13T03:25:07.686Z,1005.20
2018-08-13T03:26:07.669Z,1005.23
2018-08-13T03:27:07.649Z,1005.19
2018-08-13T03:28:07.627Z,1005.20
2018-08-13T03:29:07.608Z,1005.21
2018-08-13T03:30:07.592Z,1005.19
2018-08-13T03:31:07.573Z,1005.17
2018-08-13T03:32:07.559Z,1005.18
2018-08-13T03:33:07.534Z,1005.12
2018-08-13T03:34:07.515Z,1005.10
2018-08-13T03:35:07.500Z,1005.06
2018-08-13T03:36:07.478Z,1005.09
2018-08-13T03:37:07.463Z,1005.04
2018-08-13T03:38:07.441Z,1005.06
2018-08-13T03:39:07.422Z,1005.05
2018-08-13T03:40:07.406Z,1005.01
2018-08-13T03:41:07.384Z,1005.03
2018-08-13T03:42:07.366Z,1004.97
2018-08-13T03:43:07.351Z,1004.99
2018-08-13T03:44:07.332Z,1004.97
2018-08-13T03:45:07.313Z,1004.93
2018-08-13T03:46:07.295Z,1004.91
2018-08-13T03:47:07.274Z,1004.94
2018-08-13T03:48:07.253Z,1004.90
2018-08-13T03:49:07.236Z,1004.91
2018-08-13T03:50:07.214Z,1004.96
2018-08-13T03:51:07.200Z,1004.93
2018-08-13T03:52:07.183Z,1004.90
2018-08-13T03:53:07.162Z,1004.92
2018-08-13T03:54:07.143Z,1004.88
2018-08-13T03:55:07.122Z,1004.85
2018-08-13T03:56:07.103Z,1004.87
2018-08-13T03:57:07.086Z,1004.82
2018-08-13T03:58:07.065Z,1004.85
2018-08-13T03:59:07.051Z,1004.83
2018-08-13T04:00:37.446Z,1004.83
2018-08-13T04:01:37.413Z,1004.85
2018-08-13T04:02:37.388Z,1004.85
2018-08-13T04:03:37.376Z,1004.87
2018-08-13T04:04:37.352Z,1004.84
2018-08-13T04:05:37.335Z,1004.80
2018-08-13T04:06:37.316Z,1004.78
2018-08-13T04:07:37.298Z,1004.80
2018-08-13T04:08:37.279Z,1004.78
2018-08-13T04:09:37.261Z,1004.75
2018-08-13T04:10:37.243Z,1004.78
2018-08-13T04:11:37.229Z,1004.79
2018-08-13T04:12:37.205Z,1004.74
2018-08-13T04:13:37.194Z,1004.76
2018-08-13T04:14:37.173Z,1004.76
2018-08-13T04:15:37.156Z,1004.80
2018-08-13T04:16:37.134Z,1004.75
2018-08-13T04:17:37.126Z,1004.76
2018-08-13T04:18:37.104Z,1004.73
2018-08-13T04:19:37.085Z,1004.71
2018-08-13T04:20:37.064Z,1004.69
2018-08-13T04:21:37.052Z,1004.73
2018-08-13T04:22:37.033Z,1004.73
2018-08-13T04:23:37.013Z,1004.73
2018-08-13T04:24:36.995Z,1004.74
2018-08-13T04:25:36.980Z,1004.78
2018-08-13T04:26:36.966Z,1004.75
2018-08-13T04:27:36.952Z,1004.75
2018-08-13T04:28:36.927Z,1004.77
2018-08-13T04:29:36.909Z,1004.74
2018-08-13T04:30:36.894Z,1004.79
2018-08-13T04:31:36.875Z,1004.79
2018-08-13T04:32:36.898Z,1004.84
2018-08-13T04:33:36.840Z,1004.85
2018-08-13T04:34:36.824Z,1004.83
2018-08-13T04:35:36.805Z,1004.81
2018-08-13T04:36:36.789Z,1004.78
2018-08-13T04:37:36.772Z,1004.79
2018-08-13T04:38:36.776Z,1004.79
2018-08-13T04:39:36.738Z,1004.77
2018-08-13T04:40:36.746Z,1004.80
2018-08-13T04:41:36.702Z,1004.80
2018-08-13T04:42:36.687Z,1004.79
2018-08-13T04:43:36.669Z,1004.81
2018-08-13T04:44:36.655Z,1004.75
2018-08-13T04:45:36.636Z,1004.78
2018-08-13T04:46:36.618Z,1004.79
2018-08-13T04:47:36.599Z,1004.80
2018-08-13T04:48:36.581Z,1004.79
2018-08-13T04:49:36.568Z,1004.87
2018-08-13T04:50:36.547Z,1004.87
2018-08-13T04:51:36.535Z,1004.89
2018-08-13T04:52:36.513Z,1004.92
2018-08-13T04:53:36.497Z,1004.90
2018-08-13T04:54:36.481Z,1004.92
2018-08-13T04:55:36.468Z,1004.89
2018-08-13T04:56:36.445Z,1004.93
2018-08-13T04:57:36.433Z,1004.90
2018-08-13T04:58:36.413Z,1004.88
2018-08-13T04:59:36.394Z,1004.89
2018-08-13T05:00:36.382Z,1004.92
2018-08-13T05:01:36.362Z,1004.94
2018-08-13T05:02:36.347Z,1004.97
2018-08-13T05:03:36.329Z,1004.95
2018-08-13T05:04:36.312Z,1004.99
2018-08-13T05:05:36.295Z,1004.95
2018-08-13T05:06:36.279Z,1004.96
2018-08-13T05:07:36.262Z,1004.99
2018-08-13T05:08:36.244Z,1004.97
2018-08-13T05:09:36.228Z,1004.96
2018-08-13T05:10:36.214Z,1004.96
2018-08-13T05:11:36.195Z,1004.97
2018-08-13T05:12:36.177Z,1004.92
2018-08-13T05:13:36.159Z,1004.98
2018-08-13T05:14:36.157Z,1004.97
2018-08-13T05:15:36.128Z,1005.01
2018-08-13T05:16:36.109Z,1005.01
2018-08-13T05:17:36.092Z,1004.98
2018-08-13T05:18:36.079Z,1004.97
2018-08-13T05:19:36.064Z,1005.02
2018-08-13T05:20:36.043Z,1004.97
2018-08-13T05:21:36.026Z,1004.99
2018-08-13T05:22:36.017Z,1005.00
2018-08-13T05:23:35.994Z,1005.00
2018-08-13T05:24:35.980Z,1005.00
2018-08-13T05:25:35.961Z,1005.00
2018-08-13T05:26:35.944Z,1005.05
2018-08-13T05:27:35.976Z,1005.06
2018-08-13T05:28:35.913Z,1005.08
2018-08-13T05:29:35.893Z,1005.03
2018-08-13T05:30:35.881Z,1005.01
2018-08-13T05:31:35.862Z,1005.07
2018-08-13T05:32:35.847Z,1005.04
2018-08-13T05:33:35.829Z,1005.09
2018-08-13T05:34:35.815Z,1005.08
2018-08-13T05:35:35.800Z,1005.04
2018-08-13T05:36:35.782Z,1005.14
2018-08-13T05:37:35.763Z,1005.09
2018-08-13T05:38:35.769Z,1005.12
2018-08-13T05:39:35.731Z,1005.11
2018-08-13T05:40:35.713Z,1005.07
2018-08-13T05:41:35.696Z,1005.13
2018-08-13T05:42:35.682Z,1005.06
2018-08-13T05:43:35.666Z,1005.07
2018-08-13T05:44:35.647Z,1005.05
2018-08-13T05:45:35.641Z,1005.06
2018-08-13T05:46:35.616Z,1005.04
2018-08-13T05:47:35.600Z,1005.02
2018-08-13T05:48:35.583Z,1005.03
2018-08-13T05:49:35.569Z,1005.00
2018-08-13T05:50:35.551Z,1004.99
2018-08-13T05:51:35.543Z,1005.02
2018-08-13T05:52:35.518Z,1005.02
2018-08-13T05:53:35.504Z,1005.02
2018-08-13T05:54:35.487Z,1005.05
2018-08-13T05:55:35.469Z,1005.03
2018-08-13T05:56:35.453Z,1005.05
2018-08-13T05:57:35.440Z,1005.03
2018-08-13T05:58:35.424Z,1005.02
2018-08-13T05:59:35.407Z,1005.06
2018-08-13T06:00:35.392Z,1005.04
2018-08-13T06:01:35.375Z,1005.06
2018-08-13T06:02:35.359Z,1005.12
2018-08-13T06:03:35.343Z,1005.09
2018-08-13T06:04:35.353Z,1005.08
2018-08-13T06:05:35.311Z,1005.13
2018-08-13T06:06:35.295Z,1005.12
2018-08-13T06:07:35.283Z,1005.10
2018-08-13T06:08:35.270Z,1005.13
2018-08-13T06:09:35.259Z,1005.13
2018-08-13T06:10:35.232Z,1005.13
2018-08-13T06:11:35.311Z,1005.05
2018-08-13T06:12:35.199Z,1005.03
2018-08-13T06:13:35.183Z,1005.04
2018-08-13T06:14:35.170Z,1004.99
2018-08-13T06:15:35.152Z,1004.96
2018-08-13T06:16:35.140Z,1004.99
2018-08-13T06:17:35.120Z,1004.99
2018-08-13T06:18:35.121Z,1005.00
2018-08-13T06:19:35.100Z,1004.96
2018-08-13T06:20:35.077Z,1004.93
2018-08-13T06:21:35.059Z,1004.92
2018-08-13T06:22:35.044Z,1004.87
2018-08-13T06:23:35.031Z,1004.87
2018-08-13T06:24:35.012Z,1004.86
2018-08-13T06:25:34.997Z,1004.88
2018-08-13T06:26:34.983Z,1004.92
2018-08-13T06:27:34.968Z,1004.88
2018-08-13T06:28:34.953Z,1004.90
2018-08-13T06:29:34.937Z,1004.86
2018-08-13T06:30:34.923Z,1004.89
2018-08-13T06:31:34.911Z,1004.91
2018-08-13T06:32:34.896Z,1004.88
2018-08-13T06:33:34.878Z,1004.85
2018-08-13T06:34:34.861Z,1004.85
2018-08-13T06:35:34.846Z,1004.88
2018-08-13T06:36:34.831Z,1004.91
2018-08-13T06:37:34.830Z,1004.88
2018-08-13T06:38:34.801Z,1004.85
2018-08-13T06:39:34.784Z,1004.83
2018-08-13T06:40:34.770Z,1004.84
2018-08-13T06:41:34.758Z,1004.85
2018-08-13T06:42:34.746Z,1004.86
2018-08-13T06:43:34.729Z,1004.88
2018-08-13T06:44:34.713Z,1004.85
2018-08-13T06:45:34.697Z,1004.85
2018-08-13T06:46:34.691Z,1004.85
2018-08-13T06:47:34.671Z,1004.88
2018-08-13T06:48:34.654Z,1004.79
2018-08-13T06:49:34.967Z,1004.80
2018-08-13T06:50:34.629Z,1004.83
2018-08-13T06:51:34.611Z,1004.82
2018-08-13T06:52:34.598Z,1004.83
2018-08-13T06:53:34.584Z,1004.81
2018-08-13T06:54:34.569Z,1004.86
2018-08-13T06:55:34.556Z,1004.83
2018-08-13T06:56:34.541Z,1004.82
2018-08-13T06:57:34.530Z,1004.87
2018-08-13T06:58:34.513Z,1004.89
2018-08-13T06:59:34.502Z,1004.87
2018-08-13T07:00:34.488Z,1004.90
2018-08-13T07:01:34.475Z,1004.91
2018-08-13T07:02:34.457Z,1004.91
2018-08-13T07:03:34.445Z,1004.99
2018-08-13T07:04:34.433Z,1005.08
2018-08-13T07:05:34.416Z,1005.06
2018-08-13T07:06:34.407Z,1005.06
2018-08-13T07:07:34.390Z,1005.07
2018-08-13T07:08:34.377Z,1005.03
2018-08-13T07:09:34.363Z,1005.02
2018-08-13T07:10:34.353Z,1004.97
2018-08-13T07:11:34.340Z,1004.95
2018-08-13T07:12:34.323Z,1004.95
2018-08-13T07:13:34.311Z,1004.92
2018-08-13T07:14:34.300Z,1004.89
2018-08-13T07:15:34.307Z,1004.90
2018-08-13T07:16:34.272Z,1004.96
2018-08-13T07:17:34.275Z,1005.06
2018-08-13T07:18:34.247Z,1005.04
2018-08-13T07:19:34.233Z,1005.02
2018-08-13T07:20:34.223Z,1005.00
2018-08-13T07:21:34.207Z,1005.06
2018-08-13T07:22:34.196Z,1005.12
2018-08-13T07:23:34.184Z,1005.31
2018-08-13T07:24:34.172Z,1006.20
2018-08-13T07:25:34.161Z,1010.93
2018-08-13T07:26:34.149Z,1017.54
2018-08-13T07:27:34.133Z,1022.51
2018-08-13T07:28:34.121Z,1024.26
2018-08-13T07:29:34.109Z,1023.45
2018-08-13T07:30:34.097Z,1023.80
2018-08-13T07:31:34.086Z,1024.50
2018-08-13T07:32:34.079Z,1024.74
2018-08-13T07:33:34.097Z,1026.02
2018-08-13T07:34:34.057Z,1023.16
2018-08-13T07:35:34.043Z,1023.43
2018-08-13T07:36:34.036Z,1025.78
2018-08-13T07:37:34.022Z,1025.38
2018-08-13T07:38:34.014Z,1024.47
2018-08-13T07:39:34.052Z,1024.00
2018-08-13T07:40:33.995Z,1022.67
2018-08-13T07:41:33.985Z,1019.85
2018-08-13T07:42:33.977Z,1016.35
2018-08-13T07:43:33.970Z,1015.65
2018-08-13T07:44:33.959Z,1014.91
2018-08-13T07:45:33.956Z,1015.37
2018-08-13T07:46:33.974Z,1017.42
2018-08-13T07:47:33.940Z,1020.29
2018-08-13T07:48:33.929Z,1023.50
2018-08-13T07:49:33.920Z,1027.03
2018-08-13T07:50:33.917Z,1031.18
2018-08-13T07:51:33.956Z,1032.73
2018-08-13T07:52:34.715Z,1033.11
2018-08-13T07:53:33.893Z,1032.65
2018-08-13T07:54:33.887Z,1032.52
2018-08-13T07:55:33.881Z,1031.94
2018-08-13T07:56:33.875Z,1031.11
2018-08-13T07:57:33.868Z,1029.46
2018-08-13T07:58:33.887Z,1027.78
2018-08-13T07:59:33.858Z,1027.20
2018-08-13T08:00:33.850Z,1027.43
2018-08-13T08:01:33.848Z,1029.90
2018-08-13T08:02:33.844Z,1030.95
2018-08-13T08:03:33.846Z,1029.53
2018-08-13T08:04:33.833Z,1026.51
2018-08-13T08:05:33.828Z,1023.76
2018-08-13T08:06:33.824Z,1023.42
2018-08-13T08:07:33.827Z,1024.45
2018-08-13T08:08:33.815Z,1025.88
2018-08-13T08:09:33.809Z,1026.59
2018-08-13T08:10:33.809Z,1026.74
2018-08-13T08:11:33.805Z,1025.89
2018-08-13T08:12:33.796Z,1025.16
2018-08-13T08:13:33.793Z,1025.07
2018-08-13T08:14:33.810Z,1024.51
2018-08-13T08:15:33.785Z,1023.84
2018-08-13T08:16:33.786Z,1022.56
2018-08-13T08:17:33.783Z,1021.89
2018-08-13T08:18:33.777Z,1022.52
2018-08-13T08:19:33.774Z,1022.36
2018-08-13T08:20:33.770Z,1021.32
2018-08-13T08:21:33.767Z,1020.44
2018-08-13T08:22:33.762Z,1020.20
2018-08-13T08:23:33.758Z,1019.90
2018-08-13T08:24:33.756Z,1019.03
2018-08-13T08:25:33.753Z,1018.79
2018-08-13T08:26:33.751Z,1017.90
2018-08-13T08:27:33.746Z,1015.97
2018-08-13T08:28:33.744Z,1014.85
2018-08-13T08:29:33.741Z,1014.25
2018-08-13T08:30:33.738Z,1013.61
2018-08-13T08:31:33.737Z,1013.17
2018-08-13T08:32:33.731Z,1013.58
2018-08-13T08:33:33.735Z,1013.48
2018-08-13T08:34:33.726Z,1013.19
2018-08-13T08:35:33.726Z,1012.04
2018-08-13T08:36:33.723Z,1011.34
2018-08-13T08:37:33.720Z,1011.00
2018-08-13T08:38:33.719Z,1010.30
2018-08-13T08:39:33.723Z,1009.85
2018-08-13T08:40:33.826Z,1009.24
2018-08-13T08:41:33.710Z,1008.54
2018-08-13T08:42:33.709Z,1007.69
2018-08-13T08:43:33.711Z,1007.14
2018-08-13T08:44:33.704Z,1006.90
2018-08-13T08:45:33.703Z,1006.69
2018-08-13T08:46:33.701Z,1006.55
2018-08-13T08:47:33.702Z,1006.45
2018-08-13T08:48:33.700Z,1006.33
2018-08-13T08:49:33.694Z,1006.21
2018-08-13T08:50:33.693Z,1006.11
2018-08-13T08:51:33.694Z,1006.04
2018-08-13T08:52:33.693Z,1004.68
2018-08-13T08:53:33.694Z,1004.68
2018-08-13T08:54:33.685Z,1004.66
2018-08-13T08:55:33.683Z,1004.67
2018-08-13T08:56:33.683Z,1004.62
2018-08-13T08:57:33.678Z,1004.59
2018-08-13T08:58:33.682Z,1004.63
2018-08-13T08:59:33.674Z,1004.59
2018-08-13T09:00:33.675Z,1004.61
2018-08-13T09:01:33.672Z,1004.58
2018-08-13T09:02:33.667Z,1004.50
2018-08-13T09:03:33.663Z,1004.44
2018-08-13T09:04:33.663Z,1004.46
2018-08-13T09:05:33.663Z,1004.44
2018-08-13T09:06:33.655Z,1004.45
2018-08-13T09:07:33.653Z,1004.49
2018-08-13T09:08:33.650Z,1004.50
2018-08-13T09:09:33.647Z,1004.49
2018-08-13T09:10:33.644Z,1004.50
2018-08-13T09:12:16.849Z,1004.44
2018-08-13T09:13:16.845Z,1004.48
2018-08-13T09:14:17.042Z,1004.45
2018-08-13T09:15:16.838Z,1004.38
2018-08-13T09:16:16.837Z,1004.41
2018-08-13T09:17:16.828Z,1004.37
2018-08-13T09:18:16.827Z,1004.32
2018-08-13T09:19:16.827Z,1004.33
2018-08-13T09:20:16.822Z,1004.31
2018-08-13T09:21:16.815Z,1004.30
2018-08-13T09:22:16.812Z,1004.29
2018-08-13T09:23:16.810Z,1004.29
2018-08-13T09:24:16.869Z,1004.31
2018-08-13T09:25:16.800Z,1004.30
2018-08-13T09:26:16.796Z,1004.32
2018-08-13T09:27:16.789Z,1004.30
2018-08-13T09:28:16.789Z,1004.24
2018-08-13T09:29:16.782Z,1004.29
2018-08-13T09:30:16.791Z,1004.23
2018-08-13T09:31:16.776Z,1004.18
2018-08-13T09:32:16.768Z,1004.18
2018-08-13T09:33:16.773Z,1004.16
2018-08-13T09:34:16.763Z,1004.21
2018-08-13T09:35:16.755Z,1004.19
2018-08-13T09:36:16.751Z,1004.18
2018-08-13T09:37:16.748Z,1004.20
2018-08-13T09:38:16.742Z,1004.18
2018-08-13T09:39:16.741Z,1004.16
2018-08-13T09:40:16.734Z,1004.18
2018-08-13T09:41:16.732Z,1004.17
2018-08-13T09:42:16.726Z,1004.15
2018-08-13T09:43:16.719Z,1004.14
2018-08-13T09:44:16.714Z,1004.13
2018-08-13T09:45:16.710Z,1004.14
2018-08-13T09:46:16.711Z,1004.14
2018-08-13T09:47:16.699Z,1004.11
2018-08-13T09:48:16.817Z,1004.10
2018-08-13T09:49:16.691Z,1004.12
2018-08-13T09:50:16.684Z,1004.11
2018-08-13T09:51:16.678Z,1004.12
2018-08-13T09:52:16.675Z,1004.07
2018-08-13T09:53:16.671Z,1004.09
2018-08-13T09:54:16.674Z,1004.07
2018-08-13T09:55:16.660Z,1004.09
2018-08-13T09:56:16.655Z,1004.05
2018-08-13T09:57:16.653Z,1004.03
2018-08-13T09:58:16.647Z,1003.99
2018-08-13T09:59:16.652Z,1004.02
2018-08-13T10:00:16.676Z,1003.99
2018-08-13T10:01:16.629Z,1003.93
2018-08-13T10:02:16.626Z,1004.00
2018-08-13T10:03:16.622Z,1003.96
2018-08-13T10:04:16.614Z,1003.96
2018-08-13T10:05:16.617Z,1003.98
2018-08-13T10:06:16.605Z,1004.20
2018-08-13T10:07:16.598Z,1004.24
2018-08-13T10:08:16.596Z,1004.21
2018-08-13T10:09:16.636Z,1004.16
2018-08-13T10:10:16.585Z,1004.18
2018-08-13T10:11:16.579Z,1004.23
2018-08-13T10:12:16.580Z,1004.20
2018-08-13T10:13:16.570Z,1004.25
2018-08-13T10:14:16.566Z,1004.28
2018-08-13T10:15:16.561Z,1004.27
2018-08-13T10:16:16.558Z,1004.27
2018-08-13T10:17:16.554Z,1004.16
2018-08-13T10:18:16.549Z,1004.22
2018-08-13T10:19:16.548Z,1004.23
2018-08-13T10:20:16.541Z,1004.21
2018-08-13T10:21:16.538Z,1004.16
2018-08-13T10:22:16.537Z,1004.15
2018-08-13T10:23:16.531Z,1004.19
2018-08-13T10:24:16.529Z,1004.11
2018-08-13T10:25:16.523Z,1004.16
2018-08-13T10:26:16.521Z,1004.18
2018-08-13T10:27:16.518Z,1004.24
2018-08-13T10:28:16.517Z,1004.22
2018-08-13T10:29:16.513Z,1004.11
2018-08-13T10:30:16.511Z,1004.19
2018-08-13T10:31:16.507Z,1004.16
2018-08-13T10:32:16.511Z,1004.23
2018-08-13T10:33:16.502Z,1004.25
2018-08-13T10:34:16.502Z,1004.24
2018-08-13T10:35:16.499Z,1004.27
2018-08-13T10:36:16.496Z,1004.20
2018-08-13T10:37:16.550Z,1004.19
2018-08-13T10:38:16.494Z,1004.18
2018-08-13T10:39:16.495Z,1004.18
2018-08-13T10:40:16.490Z,1004.09
2018-08-13T10:41:16.496Z,1004.11
2018-08-13T10:42:16.488Z,1004.14
2018-08-13T10:43:16.485Z,1004.07
2018-08-13T10:44:16.491Z,1004.09
2018-08-13T10:45:16.485Z,1004.09
2018-08-13T10:46:16.486Z,1004.13
2018-08-13T10:47:16.480Z,1004.07
2018-08-13T10:48:16.479Z,1004.12
2018-08-13T10:49:16.488Z,1004.10
2018-08-13T10:50:16.477Z,1004.11
2018-08-13T10:51:16.477Z,1004.05
2018-08-13T10:52:16.478Z,1004.01
2018-08-13T10:53:16.476Z,1004.08
2018-08-13T10:54:16.475Z,1004.14
2018-08-13T10:55:16.474Z,1004.10
2018-08-13T10:56:16.603Z,1004.09
2018-08-13T10:57:16.475Z,1004.06
2018-08-13T10:58:16.477Z,1004.10
2018-08-13T10:59:16.483Z,1004.08
2018-08-13T11:00:16.474Z,1004.03
2018-08-13T11:01:16.534Z,1003.97
2018-08-13T11:02:16.474Z,1004.02
2018-08-13T11:03:16.475Z,1003.97
2018-08-13T11:04:16.476Z,1003.92
2018-08-13T11:05:16.486Z,1003.97
2018-08-13T11:06:16.476Z,1003.84
2018-08-13T11:07:16.476Z,1003.80
2018-08-13T11:08:16.478Z,1003.91
2018-08-13T11:09:16.489Z,1003.88
2018-08-13T11:10:16.501Z,1003.91
2018-08-13T11:11:16.480Z,1003.88
2018-08-13T11:12:16.479Z,1003.88
2018-08-13T11:13:16.481Z,1003.92
2018-08-13T11:14:16.482Z,1003.92
2018-08-13T11:15:16.487Z,1003.75
2018-08-13T11:16:16.484Z,1003.73
2018-08-13T11:17:16.539Z,1003.69
2018-08-13T11:18:16.486Z,1003.96
2018-08-13T11:19:16.489Z,1003.97
2018-08-13T11:20:16.490Z,1004.04
2018-08-13T11:21:16.491Z,1003.98
2018-08-13T11:22:16.492Z,1003.99
2018-08-13T11:23:16.492Z,1004.05
2018-08-13T11:24:16.495Z,1004.20
2018-08-13T11:25:16.543Z,1004.45
2018-08-13T11:26:16.500Z,1004.53
2018-08-13T11:27:16.499Z,1003.43
2018-08-13T11:28:16.502Z,1003.49
2018-08-13T11:29:16.502Z,1003.50
2018-08-13T11:30:16.508Z,1003.46
2018-08-13T11:31:16.534Z,1003.52
2018-08-13T11:32:16.508Z,1003.52
2018-08-13T11:33:16.515Z,1003.48
2018-08-13T11:34:16.518Z,1003.49
2018-08-13T11:35:16.509Z,1003.46
2018-08-13T11:36:16.509Z,1003.43
2018-08-13T11:37:16.511Z,1003.45
2018-08-13T11:38:16.513Z,1003.43
2018-08-13T11:39:16.519Z,1003.41
2018-08-13T11:40:16.513Z,1003.43
2018-08-13T11:41:16.526Z,1003.46
2018-08-13T11:42:16.512Z,1003.49
2018-08-13T11:43:16.512Z,1003.44
2018-08-13T11:44:16.512Z,1003.47
2018-08-13T11:45:16.511Z,1003.44
2018-08-13T11:46:16.526Z,1003.47
2018-08-13T11:47:16.512Z,1003.50
2018-08-13T11:48:16.509Z,1003.40
2018-08-13T11:49:16.509Z,1003.42
2018-08-13T11:50:16.519Z,1003.40
2018-08-13T11:51:16.506Z,1003.43
2018-08-13T11:52:16.506Z,1003.40
2018-08-13T11:53:16.505Z,1003.42
2018-08-13T11:54:16.505Z,1003.45
2018-08-13T11:55:16.585Z,1003.38
2018-08-13T11:56:16.533Z,1003.34
2018-08-13T11:57:16.496Z,1003.36
2018-08-13T11:58:16.498Z,1003.29
2018-08-13T11:59:16.497Z,1003.25
2018-08-13T12:00:16.495Z,1003.18
2018-08-13T12:01:16.492Z,1003.23
2018-08-13T12:02:16.493Z,1003.33
2018-08-13T12:03:16.499Z,1003.56
2018-08-13T12:04:16.496Z,1003.64
2018-08-13T12:05:16.498Z,1003.87
2018-08-13T12:06:16.486Z,1003.85